Time;durP1;ratioP1;P1;durP2;ratioP2;P2;SDS_P1;SDS_P2;PMS_P1;PMS_P2;Temp;Humidity;BMP_temperature;BMP_pressure;BME280_temperature;BME280_humidity;BME280_pressure;Samples;Min_cycle;Max_cycle;Signal;HPM_P1;HPM_P2
2022/02/14 00:01:47;;;;;;;7.10;4.93;;;;;;;-0.88;66.58;95521.53;5133095;27;20035;-66
2022/02/14 00:04:12;;;;;;;7.90;4.85;;;;;;;-0.96;66.21;95520.00;5134184;27;20024;-67
2022/02/14 00:06:38;;;;;;;9.95;6.28;;;;;;;-1.01;66.89;95524.41;5133856;27;20516;-66
2022/02/14 00:09:03;;;;;;;8.63;5.50;;;;;;;-1.00;67.39;95515.88;5115516;27;20031;-66
2022/02/14 00:11:29;;;;;;;9.90;6.00;;;;;;;-1.02;67.56;95514.25;5134307;27;20027;-67
2022/02/14 00:13:54;;;;;;;10.90;6.32;;;;;;;-1.01;67.46;95521.00;5115485;27;20505;-66
2022/02/14 00:16:19;;;;;;;8.85;4.75;;;;;;;-0.99;67.71;95522.66;5132757;27;20027;-66
2022/02/14 00:18:45;;;;;;;10.02;5.68;;;;;;;-0.99;67.11;95516.72;5132524;27;20032;-66
2022/02/14 00:21:10;;;;;;;7.88;5.20;;;;;;;-1.07;66.99;95519.47;5098224;27;20027;-66
2022/02/14 00:23:36;;;;;;;10.25;6.03;;;;;;;-1.07;67.41;95511.81;5132248;27;20046;-66
2022/02/14 00:26:01;;;;;;;10.63;6.07;;;;;;;-1.05;67.54;95514.34;5115339;27;20035;-66
2022/02/14 00:28:26;;;;;;;11.60;6.15;;;;;;;-1.05;67.47;95515.16;5115144;27;20039;-66
2022/02/14 00:30:52;;;;;;;11.60;6.25;;;;;;;-1.07;67.71;95509.25;5132351;27;20023;-66
2022/02/14 00:33:17;;;;;;;10.93;6.38;;;;;;;-1.08;68.02;95510.16;5132156;27;20031;-66
2022/02/14 00:35:43;;;;;;;9.65;6.47;;;;;;;-1.10;67.60;95513.63;5132251;27;20027;-66
2022/02/14 00:38:08;;;;;;;10.02;6.22;;;;;;;-1.14;67.86;95511.16;5133397;27;20027;-66
2022/02/14 00:40:35;;;;;;;7.95;5.45;;;;;;;-1.16;67.89;95509.50;5115001;27;20035;-66
2022/02/14 00:43:02;;;;;;;11.38;5.90;;;;;;;-1.22;67.86;95494.38;5132100;27;20553;-66
2022/02/14 00:45:28;;;;;;;10.32;6.25;;;;;;;-1.10;68.08;95501.69;5098077;27;20020;-66
2022/02/14 00:47:53;;;;;;;8.15;5.30;;;;;;;-1.16;68.05;95512.88;5131988;27;20122;-66
2022/02/14 00:50:19;;;;;;;11.63;5.90;;;;;;;-1.17;68.13;95505.25;5131912;27;20023;-66
2022/02/14 00:52:44;;;;;;;10.27;5.38;;;;;;;-1.23;68.17;95501.16;5132080;27;20455;-66
2022/02/14 00:55:10;;;;;;;9.30;5.35;;;;;;;-1.25;67.91;95489.34;5131704;27;20023;-66
2022/02/14 00:57:36;;;;;;;9.25;5.82;;;;;;;-1.24;68.31;95480.81;5131829;27;20039;-67
2022/02/14 01:00:02;;;;;;;6.55;4.80;;;;;;;-1.10;68.15;95496.59;5131747;27;20027;-67
2022/02/14 01:02:28;;;;;;;10.18;5.63;;;;;;;-1.17;68.19;95484.88;5131611;27;20087;-66
2022/02/14 01:04:53;;;;;;;8.02;5.53;;;;;;;-1.12;68.64;95485.59;5113743;27;20027;-66
2022/02/14 01:07:19;;;;;;;8.45;5.63;;;;;;;-1.09;69.16;95482.13;5132739;27;20103;-66
2022/02/14 01:09:44;;;;;;;10.73;5.75;;;;;;;-1.04;69.51;95481.13;5132606;27;20095;-66
2022/02/14 01:12:10;;;;;;;7.82;4.95;;;;;;;-1.00;69.13;95482.72;5132704;27;20553;-66
2022/02/14 01:14:35;;;;;;;10.93;5.85;;;;;;;-1.02;69.58;95476.00;5131389;27;20027;-66
2022/02/14 01:17:01;;;;;;;9.13;5.53;;;;;;;-0.96;69.37;95475.81;5131641;27;20031;-66
2022/02/14 01:19:26;;;;;;;10.00;5.75;;;;;;;-0.96;69.08;95484.31;5131294;27;20034;-66
2022/02/14 01:21:52;;;;;;;8.57;5.60;;;;;;;-0.94;69.54;95480.00;5131514;27;20069;-66
2022/02/14 01:24:17;;;;;;;8.88;5.78;;;;;;;-0.87;70.20;95461.97;5132363;27;20047;-66
2022/02/14 01:26:42;;;;;;;11.55;7.30;;;;;;;-0.85;70.15;95455.94;5132843;27;20031;-66
2022/02/14 01:29:09;;;;;;;10.25;6.38;;;;;;;-0.85;69.99;95466.16;5131174;27;20035;-66
2022/02/14 01:31:34;;;;;;;10.07;6.63;;;;;;;-0.79;70.17;95463.44;5131371;27;20034;-66
2022/02/14 01:33:59;;;;;;;18.33;9.02;;;;;;;-0.68;70.35;95463.13;5131008;27;20035;-66
2022/02/14 01:36:25;;;;;;;19.48;10.65;;;;;;;-0.64;69.57;95464.72;5132685;27;20030;-66
2022/02/14 01:38:51;;;;;;;22.73;12.27;;;;;;;-0.67;69.20;95452.03;5132207;27;20481;-66
2022/02/14 01:41:16;;;;;;;17.50;10.65;;;;;;;-0.53;69.15;95460.16;5113909;27;20030;-66
2022/02/14 01:43:43;;;;;;;19.10;9.90;;;;;;;-0.50;69.26;95456.66;5130908;27;20091;-66
2022/02/14 01:46:09;;;;;;;18.52;10.45;;;;;;;-0.51;69.06;95457.53;5130922;27;20108;-66
2022/02/14 01:48:35;;;;;;;16.30;10.68;;;;;;;-0.51;69.40;95460.91;5113742;27;20031;-66
2022/02/14 01:51:00;;;;;;;16.63;10.35;;;;;;;-0.45;69.12;95454.78;5113840;27;20039;-66
2022/02/14 01:53:26;;;;;;;13.48;8.30;;;;;;;-0.38;69.02;95452.91;5113754;27;20063;-66
2022/02/14 01:55:52;;;;;;;16.00;8.73;;;;;;;-0.39;69.06;95453.78;5113770;28;20035;-66
2022/02/14 01:58:17;;;;;;;16.30;9.52;;;;;;;-0.37;69.10;95452.03;5130656;27;20114;-66
2022/02/14 02:00:44;;;;;;;15.90;9.30;;;;;;;-0.36;68.83;95451.13;5132137;27;20030;-67
2022/02/14 02:03:10;;;;;;;15.52;9.48;;;;;;;-0.33;68.95;95443.41;5131800;27;20034;-66
2022/02/14 02:05:36;;;;;;;15.95;9.35;;;;;;;-0.32;69.27;95445.88;5132028;27;20074;-66
2022/02/14 02:08:02;;;;;;;12.70;9.10;;;;;;;-0.32;69.00;95442.50;5131805;27;20047;-66
2022/02/14 02:10:27;;;;;;;15.05;9.20;;;;;;;-0.33;69.33;95444.22;5130517;27;20027;-66
2022/02/14 02:12:56;;;;;;;20.70;10.80;;;;;;;-0.33;68.60;95436.56;5130594;28;20039;-66
2022/02/14 02:15:22;;;;;;;20.90;10.57;;;;;;;-0.34;68.84;95432.31;5113406;28;20420;-67
2022/02/14 02:17:47;;;;;;;21.15;11.23;;;;;;;-0.34;68.85;95431.50;5117309;27;20031;-67
2022/02/14 02:20:14;;;;;;;19.40;10.77;;;;;;;-0.39;68.47;95423.13;5134760;27;20027;-66
2022/02/14 02:22:43;;;;;;;15.88;9.63;;;;;;;-0.35;68.81;95430.66;5117768;27;20638;-67
2022/02/14 02:25:09;;;;;;;18.95;11.02;;;;;;;-0.38;68.75;95430.75;5134693;27;20100;-66
2022/02/14 02:27:34;;;;;;;16.25;9.80;;;;;;;-0.40;69.14;95424.03;5117560;27;20027;-66
2022/02/14 02:30:01;;;;;;;12.88;8.65;;;;;;;-0.40;69.07;95418.91;5135821;27;20036;-66
2022/02/14 02:32:29;;;;;;;11.77;7.85;;;;;;;-0.40;68.98;95418.91;5134557;27;20116;-66
2022/02/14 02:34:55;;;;;;;13.23;7.45;;;;;;;-0.38;68.87;95419.72;5117413;27;20043;-66
2022/02/14 02:37:20;;;;;;;11.02;7.75;;;;;;;-0.39;68.54;95418.03;5117287;27;20118;-66
2022/02/14 02:39:46;;;;;;;12.85;7.70;;;;;;;-0.38;68.97;95427.38;5134288;27;20027;-66
2022/02/14 02:42:13;;;;;;;12.80;7.65;;;;;;;-0.41;68.97;95410.44;5134436;27;20027;-66
2022/02/14 02:44:39;;;;;;;12.85;7.63;;;;;;;-0.41;68.71;95417.25;5100162;27;20409;-66
2022/02/14 02:47:06;;;;;;;14.55;8.48;;;;;;;-0.41;68.79;95414.72;5100321;27;20031;-67
2022/02/14 02:49:32;;;;;;;14.90;9.38;;;;;;;-0.37;68.48;95406.88;5134319;27;20039;-66
2022/02/14 02:51:57;;;;;;;15.23;10.45;;;;;;;-0.35;68.68;95419.63;5134476;27;20038;-66
2022/02/14 02:54:23;;;;;;;17.17;10.27;;;;;;;-0.30;68.60;95415.22;5117016;27;20035;-66
2022/02/14 02:56:49;;;;;;;19.27;10.90;;;;;;;-0.27;68.52;95410.00;5134425;27;20038;-66
2022/02/14 02:59:16;;;;;;;13.32;8.95;;;;;;;-0.31;68.70;95416.09;5117058;27;20087;-67
2022/02/14 03:01:41;;;;;;;18.73;11.38;;;;;;;-0.27;69.04;95408.28;5117032;27;20038;-67
2022/02/14 03:04:08;;;;;;;17.20;9.60;;;;;;;-0.19;68.54;95420.00;5116798;27;20031;-66
2022/02/14 03:06:33;;;;;;;16.85;10.15;;;;;;;-0.21;68.98;95417.47;5134072;27;20035;-66
2022/02/14 03:08:58;;;;;;;15.45;9.45;;;;;;;-0.19;69.05;95420.00;5116670;27;20412;-66
2022/02/14 03:11:24;;;;;;;16.42;10.32;;;;;;;-0.20;68.63;95419.13;5133972;27;20027;-67
2022/02/14 03:13:50;;;;;;;16.15;9.60;;;;;;;-0.23;68.99;95409.03;5133753;27;20026;-66
2022/02/14 03:16:15;;;;;;;15.63;9.75;;;;;;;-0.17;68.72;95423.31;5135260;27;20027;-66
2022/02/14 03:18:41;;;;;;;18.40;10.35;;;;;;;-0.22;69.06;95423.47;5135204;27;20485;-66
2022/02/14 03:21:06;;;;;;;18.10;10.02;;;;;;;-0.26;68.65;95425.28;5116754;27;20034;-66
2022/02/14 03:23:32;;;;;;;14.52;9.98;;;;;;;-0.31;68.58;95414.34;5133450;27;20031;-66
2022/02/14 03:25:58;;;;;;;17.25;9.48;;;;;;;-0.25;68.84;95426.97;5133695;27;20027;-66
2022/02/14 03:28:23;;;;;;;13.45;9.32;;;;;;;-0.25;68.98;95428.69;5134298;27;20508;-66
2022/02/14 03:30:48;;;;;;;17.25;10.48;;;;;;;-0.28;68.86;95421.09;5134962;27;20027;-66
2022/02/14 03:33:14;;;;;;;19.00;10.80;;;;;;;-0.27;68.52;95425.34;5116291;27;20031;-66
2022/02/14 03:35:39;;;;;;;14.30;9.95;;;;;;;-0.26;68.67;95420.16;5133498;27;20039;-66
2022/02/14 03:38:06;;;;;;;16.45;10.20;;;;;;;-0.23;68.79;95417.50;5134559;27;20042;-66
2022/02/14 03:40:35;;;;;;;18.05;10.35;;;;;;;-0.23;68.55;95411.56;5133300;27;20039;-66
2022/02/14 03:43:01;;;;;;;18.70;11.20;;;;;;;-0.29;69.03;95417.72;5116041;27;20023;-66
2022/02/14 03:45:28;;;;;;;18.58;10.63;;;;;;;-0.25;68.45;95415.91;5099097;27;20046;-66
2022/02/14 03:47:53;;;;;;;17.60;10.48;;;;;;;-0.24;68.54;95404.81;5134273;27;20046;-67
2022/02/14 03:50:18;;;;;;;19.60;11.45;;;;;;;-0.37;68.71;95411.16;5133065;27;20035;-66
2022/02/14 03:52:44;;;;;;;16.77;10.80;;;;;;;-0.40;69.08;95418.91;5115939;27;20038;-66
2022/02/14 03:55:10;;;;;;;22.25;11.80;;;;;;;-0.47;68.57;95408.91;5132816;27;20034;-66
2022/02/14 03:57:35;;;;;;;16.83;10.02;;;;;;;-0.48;68.95;95412.31;5133045;27;20023;-66
2022/02/14 04:00:01;;;;;;;18.13;10.68;;;;;;;-0.47;68.96;95414.00;5133112;27;20039;-67
2022/02/14 04:02:26;;;;;;;17.48;10.57;;;;;;;-0.51;68.99;95409.03;5134071;27;20485;-66
2022/02/14 04:04:55;;;;;;;15.35;9.50;;;;;;;-0.58;69.23;95410.94;5134021;27;20030;-66
2022/02/14 04:07:21;;;;;;;17.50;9.80;;;;;;;-0.61;69.39;95405.94;5133892;27;20039;-66
2022/02/14 04:09:46;;;;;;;16.13;9.95;;;;;;;-0.61;69.29;95398.28;5132648;27;20050;-66
2022/02/14 04:12:12;;;;;;;16.27;10.32;;;;;;;-0.60;69.67;95396.56;5133985;27;20416;-66
2022/02/14 04:14:37;;;;;;;17.17;11.13;;;;;;;-0.65;69.53;95404.34;5132501;27;20031;-66
2022/02/14 04:17:03;;;;;;;17.58;10.18;;;;;;;-0.66;69.73;95404.41;5132859;27;20034;-66
2022/02/14 04:19:28;;;;;;;16.05;9.77;;;;;;;-0.67;69.47;95408.63;5132523;27;20106;-66
2022/02/14 04:21:54;;;;;;;14.90;9.32;;;;;;;-0.68;69.59;95399.31;5132679;27;20401;-66
2022/02/14 04:24:19;;;;;;;18.42;10.13;;;;;;;-0.74;70.04;95404.63;5132344;27;20057;-66
2022/02/14 04:26:44;;;;;;;16.17;9.32;;;;;;;-0.74;69.96;95402.91;5133978;27;20030;-66
2022/02/14 04:29:10;;;;;;;17.90;10.13;;;;;;;-0.86;69.76;95387.09;5133531;27;20027;-66
2022/02/14 04:31:35;;;;;;;19.35;12.07;;;;;;;-0.79;69.98;95396.25;5133472;27;20031;-66
2022/02/14 04:34:01;;;;;;;18.77;11.82;;;;;;;-0.78;69.86;95398.78;5133750;27;20030;-66
2022/02/14 04:36:26;;;;;;;21.08;12.05;;;;;;;-0.78;70.17;95405.56;5133769;27;20023;-66
2022/02/14 04:38:51;;;;;;;19.98;12.52;;;;;;;-0.84;70.34;95400.66;5131999;27;20027;-66
2022/02/14 04:41:17;;;;;;;24.02;14.30;;;;;;;-0.83;70.29;95397.25;5132690;27;20031;-66
2022/02/14 04:43:42;;;;;;;18.17;11.90;;;;;;;-0.95;70.40;95381.41;5114913;27;20023;-66
2022/02/14 04:46:08;;;;;;;18.08;12.00;;;;;;;-0.82;69.93;95404.00;5131864;27;20508;-66
2022/02/14 04:48:33;;;;;;;18.77;11.48;;;;;;;-0.78;70.41;95400.47;5114853;27;20489;-66
2022/02/14 04:50:58;;;;;;;25.42;16.42;;;;;;;-0.76;70.48;95403.81;5133423;27;20023;-66
2022/02/14 04:53:24;;;;;;;20.92;13.95;;;;;;;-0.74;70.30;95397.78;5131803;27;20046;-66
2022/02/14 04:55:49;;;;;;;20.98;13.52;;;;;;;-0.71;70.51;95407.06;5133281;27;20027;-66
2022/02/14 04:58:15;;;;;;;19.08;12.68;;;;;;;-0.67;70.40;95403.53;5133004;27;20031;-66
2022/02/14 05:00:40;;;;;;;17.38;11.85;;;;;;;-0.78;70.37;95392.81;5132870;27;20031;-67
2022/02/14 05:03:05;;;;;;;17.38;11.60;;;;;;;-0.77;70.42;95404.72;5114508;27;20027;-66
2022/02/14 05:05:31;;;;;;;25.55;12.85;;;;;;;-0.78;70.79;95405.56;5131632;27;20435;-66
2022/02/14 05:07:56;;;;;;;19.35;11.75;;;;;;;-0.79;70.93;95404.75;5132848;27;20031;-66
2022/02/14 05:10:22;;;;;;;16.45;11.52;;;;;;;-0.78;70.80;95408.97;5132779;27;20039;-66
2022/02/14 05:12:47;;;;;;;17.25;10.82;;;;;;;-0.78;70.83;95403.03;5132984;27;20056;-66
2022/02/14 05:15:13;;;;;;;16.48;10.05;;;;;;;-0.76;70.41;95403.81;5132846;27;20023;-66
2022/02/14 05:17:38;;;;;;;13.43;9.27;;;;;;;-0.79;70.18;95411.56;5114336;27;20046;-66
2022/02/14 05:20:04;;;;;;;14.70;10.10;;;;;;;-0.86;70.48;95412.59;5132961;27;20027;-66
2022/02/14 05:22:30;;;;;;;17.55;11.48;;;;;;;-0.90;71.16;95411.88;5132533;27;20035;-66
2022/02/14 05:24:55;;;;;;;25.92;14.55;;;;;;;-0.91;71.34;95413.59;5131277;27;20055;-66
2022/02/14 05:27:21;;;;;;;20.98;13.57;;;;;;;-0.88;71.33;95407.56;5114130;27;20045;-66
2022/02/14 05:29:46;;;;;;;25.45;16.60;;;;;;;-0.88;71.24;95409.28;5131106;27;20027;-66
2022/02/14 05:32:12;;;;;;;27.45;17.45;;;;;;;-0.86;71.00;95407.50;5131202;27;20091;-66
2022/02/14 05:34:38;;;;;;;29.05;19.15;;;;;;;-0.94;71.48;95395.81;5132282;27;20103;-66
2022/02/14 05:37:03;;;;;;;29.00;18.65;;;;;;;-0.87;71.73;95414.34;5132776;27;20015;-66
2022/02/14 05:39:29;;;;;;;29.95;19.25;;;;;;;-0.83;71.53;95410.81;5132254;27;20413;-66
2022/02/14 05:41:54;;;;;;;28.08;18.73;;;;;;;-0.78;71.55;95425.97;5131208;27;20400;-66
2022/02/14 05:44:20;;;;;;;29.30;18.45;;;;;;;-0.73;71.56;95424.97;5132085;27;20476;-66
2022/02/14 05:46:45;;;;;;;30.15;17.73;;;;;;;-0.68;71.21;95417.19;5131061;27;20027;-66
2022/02/14 05:49:10;;;;;;;27.77;18.00;;;;;;;-0.78;71.37;95403.03;5130806;27;20485;-67
2022/02/14 05:51:36;;;;;;;32.58;19.15;;;;;;;-0.68;71.14;95412.09;5130757;27;20458;-66
2022/02/14 05:54:01;;;;;;;28.88;19.35;;;;;;;-0.67;71.41;95421.41;5130780;27;20035;-66
2022/02/14 05:56:27;;;;;;;32.30;19.80;;;;;;;-0.64;71.62;95423.91;5132334;27;20132;-66
2022/02/14 05:58:52;;;;;;;27.65;18.27;;;;;;;-0.60;71.71;95424.63;5096568;27;20444;-67
2022/02/14 06:01:18;;;;;;;26.58;17.58;;;;;;;-0.56;71.76;95416.81;5132214;27;20016;-66
2022/02/14 06:03:43;;;;;;;25.23;16.65;;;;;;;-0.48;71.79;95419.16;5131896;27;20201;-66
2022/02/14 06:06:08;;;;;;;24.98;15.93;;;;;;;-0.41;70.88;95419.81;5132109;27;20072;-66
2022/02/14 06:08:34;;;;;;;26.45;16.20;;;;;;;-0.37;70.63;95426.50;5130636;27;20031;-66
2022/02/14 06:10:59;;;;;;;26.58;15.85;;;;;;;-0.33;71.45;95423.81;5132114;27;20478;-66
2022/02/14 06:13:25;;;;;;;25.55;16.42;;;;;;;-0.26;71.19;95424.44;5130533;27;20027;-66
2022/02/14 06:15:50;;;;;;;26.17;16.83;;;;;;;-0.13;71.40;95427.47;5113531;28;20034;-66
2022/02/14 06:18:16;;;;;;;26.30;17.45;;;;;;;-0.06;70.80;95427.19;5131648;27;20084;-66
2022/02/14 06:20:41;;;;;;;27.70;16.95;;;;;;;0.01;70.66;95429.59;5130611;28;20101;-66
2022/02/14 06:23:07;;;;;;;31.55;17.95;;;;;;;0.06;70.25;95428.56;5130492;28;20035;-66
2022/02/14 06:25:32;;;;;;;29.17;18.50;;;;;;;0.16;69.74;95435.00;5130284;28;20043;-66
2022/02/14 06:27:57;;;;;;;30.98;18.77;;;;;;;0.22;69.58;95439.09;5131663;27;20031;-66
2022/02/14 06:30:23;;;;;;;31.25;18.20;;;;;;;0.28;69.97;95440.63;5131710;27;20027;-66
2022/02/14 06:32:49;;;;;;;28.90;19.27;;;;;;;0.34;69.40;95448.94;5130335;27;20023;-66
2022/02/14 06:35:14;;;;;;;29.65;19.00;;;;;;;0.38;69.67;95435.16;5130387;28;20042;-66
2022/02/14 06:37:43;;;;;;;34.10;19.63;;;;;;;0.47;68.87;95438.28;5113431;28;20080;-67
2022/02/14 06:40:12;;;;;;;31.73;20.77;;;;;;;0.58;68.71;95449.00;5130286;28;20110;-66
2022/02/14 06:42:38;;;;;;;36.92;21.58;;;;;;;0.58;68.58;95444.72;5131547;27;20071;-66
2022/02/14 06:45:03;;;;;;;35.72;22.50;;;;;;;0.69;68.50;95444.34;5113201;28;20060;-66
2022/02/14 06:47:29;;;;;;;34.47;22.02;;;;;;;0.74;68.62;95445.03;5113106;28;20575;-66
2022/02/14 06:49:54;;;;;;;35.47;20.40;;;;;;;0.72;68.58;95431.44;5131440;27;20019;-66
2022/02/14 06:52:19;;;;;;;39.22;21.48;;;;;;;0.85;67.69;95448.06;5130256;28;20030;-66
2022/02/14 06:54:45;;;;;;;37.67;22.23;;;;;;;0.88;67.29;95453.06;5131308;27;20027;-66
2022/02/14 06:57:10;;;;;;;41.90;25.45;;;;;;;0.95;67.57;95463.06;5131422;27;20525;-66
2022/02/14 06:59:36;;;;;;;39.35;24.20;;;;;;;0.97;67.55;95453.63;5131345;27;20549;-66
2022/02/14 07:02:01;;;;;;;35.38;23.50;;;;;;;1.02;67.09;95450.00;5131911;27;20043;-66
2022/02/14 07:04:27;;;;;;;41.80;23.88;;;;;;;1.11;66.85;95448.84;5134159;27;20035;-66
2022/02/14 07:06:52;;;;;;;44.28;24.80;;;;;;;1.12;66.31;95442.88;5134207;27;20095;-66
2022/02/14 07:09:18;;;;;;;35.35;21.83;;;;;;;1.15;66.80;95447.88;5133858;27;20039;-67
2022/02/14 07:11:44;;;;;;;34.40;21.02;;;;;;;1.19;66.32;95449.41;5135562;27;20036;-66
2022/02/14 07:14:13;;;;;;;45.90;27.17;;;;;;;1.14;66.18;95433.38;5133763;27;20024;-66
2022/02/14 07:16:39;;;;;;;41.67;24.00;;;;;;;1.23;66.71;95447.59;5135415;27;20030;-66
2022/02/14 07:19:04;;;;;;;43.72;24.58;;;;;;;1.31;66.85;95445.59;5133641;27;20028;-66
2022/02/14 07:21:30;;;;;;;36.75;21.13;;;;;;;1.31;66.78;95446.44;5099637;27;20527;-66
2022/02/14 07:23:55;;;;;;;43.05;24.92;;;;;;;1.34;66.70;95446.31;5134749;27;20058;-66
2022/02/14 07:26:21;;;;;;;31.98;19.80;;;;;;;1.43;66.01;95449.44;5116441;27;20442;-66
2022/02/14 07:28:46;;;;;;;42.78;23.55;;;;;;;1.49;66.32;95446.63;5133545;27;20484;-66
2022/02/14 07:31:13;;;;;;;37.13;21.48;;;;;;;1.58;66.02;95451.41;5135036;27;20035;-66
2022/02/14 07:33:39;;;;;;;38.60;20.50;;;;;;;1.55;65.88;95448.97;5133444;27;20039;-66
2022/02/14 07:36:05;;;;;;;48.47;27.83;;;;;;;1.55;66.25;95441.28;5116310;27;20027;-66
2022/02/14 07:38:31;;;;;;;39.42;22.83;;;;;;;1.64;66.52;95453.72;5116588;27;20066;-66
2022/02/14 07:40:56;;;;;;;38.28;22.23;;;;;;;1.69;66.51;95454.41;5134943;27;20027;-66
2022/02/14 07:43:23;;;;;;;34.13;20.75;;;;;;;1.68;66.85;95452.75;5133268;27;20413;-66
2022/02/14 07:45:48;;;;;;;106.95;45.17;;;;;;;1.64;66.05;95451.16;5116298;27;20027;-66
2022/02/14 07:48:14;;;;;;;75.72;33.72;;;;;;;1.58;66.04;95453.97;5133020;27;20038;-66
2022/02/14 07:50:39;;;;;;;58.38;29.85;;;;;;;1.54;66.05;95443.00;5134536;27;20091;-66
2022/02/14 07:53:05;;;;;;;57.90;29.40;;;;;;;1.56;66.38;95442.94;5132990;27;20023;-66
2022/02/14 07:55:30;;;;;;;53.28;26.50;;;;;;;1.62;66.55;95447.84;5134345;27;20038;-66
2022/02/14 07:57:56;;;;;;;45.33;24.00;;;;;;;1.63;66.91;95452.06;5133114;27;20035;-66
2022/02/14 08:00:22;;;;;;;42.50;23.45;;;;;;;1.64;67.94;95451.16;5134198;27;20039;-66
2022/02/14 08:02:48;;;;;;;45.30;25.33;;;;;;;1.66;67.61;95446.81;5134139;27;20050;-67
2022/02/14 08:05:13;;;;;;;209.40;52.75;;;;;;;1.69;67.44;95449.28;5133924;27;20042;-66
2022/02/14 08:07:39;;;;;;;128.27;38.67;;;;;;;1.70;67.59;95448.41;5132776;27;20031;-66
2022/02/14 08:10:05;;;;;;;228.57;55.20;;;;;;;1.73;68.38;95445.72;5133928;27;20038;-66
2022/02/14 08:12:30;;;;;;;162.68;45.63;;;;;;;1.77;68.15;95449.81;5132846;27;20032;-67
2022/02/14 08:14:56;;;;;;;163.30;45.15;;;;;;;1.81;68.71;95445.41;5133662;27;20050;-66
2022/02/14 08:17:21;;;;;;;176.93;44.63;;;;;;;1.81;68.41;95444.56;5132680;27;20027;-66
2022/02/14 08:19:47;;;;;;;81.35;30.88;;;;;;;1.84;68.07;95444.44;5132360;27;20386;-66
2022/02/14 08:22:12;;;;;;;50.60;25.52;;;;;;;1.87;68.56;95449.47;5132619;27;20035;-66
2022/02/14 08:24:37;;;;;;;40.08;23.75;;;;;;;1.82;68.10;95446.25;5133681;27;20107;-67
2022/02/14 08:27:03;;;;;;;70.28;29.88;;;;;;;1.85;68.69;95451.25;5132558;27;20023;-67
2022/02/14 08:29:29;;;;;;;112.82;39.80;;;;;;;1.97;69.40;95448.22;5115138;27;20509;-66
2022/02/14 08:31:54;;;;;;;71.85;31.83;;;;;;;1.96;69.43;95442.25;5115533;27;20083;-67
2022/02/14 08:34:20;;;;;;;43.17;24.08;;;;;;;2.00;68.58;95442.97;5115145;27;20481;-67
2022/02/14 08:36:45;;;;;;;43.80;24.80;;;;;;;1.97;68.88;95435.41;5132209;27;20019;-67
2022/02/14 08:39:13;;;;;;;41.53;22.90;;;;;;;2.05;68.00;95428.25;5132164;27;20087;-66
2022/02/14 08:41:38;;;;;;;135.02;46.03;;;;;;;2.17;69.01;95438.03;5133820;27;20027;-66
2022/02/14 08:44:05;;;;;;;163.38;52.20;;;;;;;2.22;68.67;95442.94;5132090;27;20035;-66
2022/02/14 08:46:30;;;;;;;71.72;31.50;;;;;;;2.19;68.81;95436.22;5133607;27;20030;-64
2022/02/14 08:48:55;;;;;;;51.75;27.88;;;;;;;2.26;67.66;95438.53;5131934;27;20507;-64
2022/02/14 08:51:21;;;;;;;45.45;26.25;;;;;;;2.29;67.76;95435.88;5114973;27;20023;-66
2022/02/14 08:53:47;;;;;;;47.08;27.08;;;;;;;2.38;67.00;95430.34;5114696;27;20059;-66
2022/02/14 08:56:13;;;;;;;44.65;26.67;;;;;;;2.42;67.32;95431.88;5132012;27;20054;-67
2022/02/14 08:58:45;;;;;;;41.95;25.40;;;;;;;2.46;66.83;95436.84;5131804;27;20038;-66
2022/02/14 09:01:11;;;;;;;47.17;27.45;;;;;;;2.41;66.99;95428.50;5115883;27;20417;-66
2022/02/14 09:03:39;;;;;;;46.63;27.02;;;;;;;2.46;66.03;95431.69;5131655;27;20031;-67
2022/02/14 09:06:05;;;;;;;50.90;27.77;;;;;;;2.40;66.26;95438.81;5131670;27;20046;-66
2022/02/14 09:08:30;;;;;;;54.20;29.05;;;;;;;2.33;66.53;95442.53;5131621;27;20039;-66
2022/02/14 09:10:58;;;;;;;50.58;28.50;;;;;;;2.31;66.98;95445.13;5132769;27;20042;-66
2022/02/14 09:13:23;;;;;;;56.55;30.63;;;;;;;2.32;66.58;95434.00;5132684;27;20042;-66
2022/02/14 09:15:48;;;;;;;133.65;52.90;;;;;;;2.46;67.32;95438.56;5132928;27;20027;-66
2022/02/14 09:18:15;;;;;;;71.07;36.28;;;;;;;2.49;66.45;95433.31;5131376;27;20424;-66
2022/02/14 09:20:41;;;;;;;60.55;30.77;;;;;;;2.59;67.55;95442.31;5114453;27;20160;-67
2022/02/14 09:23:07;;;;;;;57.25;32.38;;;;;;;2.63;67.45;95438.69;5132537;27;20023;-67
2022/02/14 09:25:32;;;;;;;60.60;32.00;;;;;;;2.68;67.70;95434.22;5130697;27;20129;-66
2022/02/14 09:27:58;;;;;;;57.78;31.73;;;;;;;2.76;67.51;95436.47;5131332;27;20035;-67
2022/02/14 09:30:23;;;;;;;71.82;36.28;;;;;;;2.81;67.36;95433.69;5131102;27;20039;-66
2022/02/14 09:32:49;;;;;;;64.95;32.85;;;;;;;2.80;67.46;95432.84;5131215;27;20031;-66
2022/02/14 09:35:26;;;;;;;56.08;30.40;;;;;;;2.80;66.52;95437.97;5113973;27;20019;-66
2022/02/14 09:37:52;;;;;;;56.38;32.53;;;;;;;2.76;66.39;95436.47;5132366;27;20026;-67
2022/02/14 09:40:18;;;;;;;58.17;30.92;;;;;;;2.79;66.13;95436.31;5130904;27;20408;-66
2022/02/14 09:42:44;;;;;;;55.53;31.80;;;;;;;2.81;66.38;95431.13;5113933;27;20027;-68
2022/02/14 09:45:10;;;;;;;52.63;31.75;;;;;;;2.89;66.91;95421.34;5130839;27;20104;-66
2022/02/14 09:47:35;;;;;;;54.00;32.33;;;;;;;3.01;66.90;95420.84;5130833;27;20031;-67
2022/02/14 09:50:01;;;;;;;57.38;32.78;;;;;;;3.12;66.04;95420.34;5132055;27;20054;-66
2022/02/14 09:52:26;;;;;;;60.00;33.10;;;;;;;3.02;65.84;95421.66;5113770;27;20031;-66
2022/02/14 09:54:52;;;;;;;53.72;31.95;;;;;;;3.01;66.09;95418.28;5130749;27;20513;-64
2022/02/14 09:57:18;;;;;;;56.33;31.70;;;;;;;2.96;66.54;95422.78;5132003;27;20084;-64
2022/02/14 09:59:44;;;;;;;61.50;32.20;;;;;;;3.01;67.38;95425.97;5130665;27;20027;-64
2022/02/14 10:02:26;;;;;;;51.10;31.15;;;;;;;3.03;66.22;95426.72;5130709;27;20019;-67
2022/02/14 10:05:10;;;;;;;61.78;33.13;;;;;;;3.04;66.60;95412.19;5130941;27;20100;-66
2022/02/14 10:07:45;;;;;;;54.97;32.15;;;;;;;3.02;66.56;95411.41;5130632;27;20110;-67
2022/02/14 10:10:22;;;;;;;56.45;33.15;;;;;;;3.08;66.94;95404.25;5130581;27;20027;-66
2022/02/14 10:12:51;;;;;;;60.05;33.17;;;;;;;3.25;66.15;95407.81;5130949;27;20041;-66
2022/02/14 10:15:17;;;;;;;57.78;32.60;;;;;;;3.27;66.56;95409.41;5131784;27;20084;-66
2022/02/14 10:17:44;;;;;;;53.70;30.95;;;;;;;3.34;66.56;95402.25;5113624;28;20031;-65
2022/02/14 10:20:11;;;;;;;55.25;30.92;;;;;;;3.42;65.89;95394.22;5130453;28;20043;-66
2022/02/14 10:22:56;;;;;;;52.92;28.38;;;;;;;3.48;65.46;95397.34;5131764;27;20072;-67
2022/02/14 10:25:41;;;;;;;56.55;31.38;;;;;;;3.64;65.83;95383.78;5130507;28;20058;-66
2022/02/14 10:28:14;;;;;;;50.30;28.90;;;;;;;3.76;64.92;95378.06;5130515;28;20106;-66
2022/02/14 10:31:04;;;;;;;50.15;28.23;;;;;;;3.72;64.34;95379.13;5096489;28;20038;-66
2022/02/14 10:33:54;;;;;;;51.92;28.17;;;;;;;3.83;63.72;95376.88;5131681;27;20493;-66
2022/02/14 10:36:39;;;;;;;47.72;28.25;;;;;;;3.84;64.93;95373.38;5131782;27;20066;-66
2022/02/14 10:39:21;;;;;;;53.70;29.08;;;;;;;3.96;64.10;95377.97;5133973;27;20100;-66
2022/02/14 10:42:07;;;;;;;48.47;26.88;;;;;;;3.92;64.11;95367.91;5119469;27;20485;-66
2022/02/14 10:47:41;;;;;;;48.95;27.25;;;;;;;3.93;64.55;95349.84;5134543;27;20061;-66
2022/02/14 10:50:17;;;;;;;46.10;26.58;;;;;;;3.98;64.38;95329.88;5134203;27;20023;-66
2022/02/14 10:52:45;;;;;;;45.20;27.55;;;;;;;4.20;63.31;95341.66;5134421;27;20118;-66
2022/02/14 10:55:16;;;;;;;47.78;28.13;;;;;;;4.16;63.28;95335.03;5134125;27;20042;-66
2022/02/14 10:57:42;;;;;;;48.97;28.33;;;;;;;4.15;62.55;95341.06;5117333;27;20421;-66
2022/02/14 11:00:10;;;;;;;51.83;28.42;;;;;;;4.02;63.55;95333.97;5117092;27;20390;-66
2022/02/14 11:02:36;;;;;;;47.97;28.40;;;;;;;4.05;63.21;95327.84;5117191;27;20038;-67
2022/02/14 11:05:02;;;;;;;48.28;26.60;;;;;;;4.21;62.72;95333.06;5133907;27;20038;-66
2022/02/14 11:07:28;;;;;;;47.70;28.35;;;;;;;4.26;62.82;95315.63;5135114;27;20039;-66
2022/02/14 11:09:55;;;;;;;48.95;28.25;;;;;;;4.42;62.34;95323.44;5116913;27;20027;-66
2022/02/14 11:12:21;;;;;;;49.00;28.10;;;;;;;4.44;62.20;95321.63;5135382;27;20027;-66
2022/02/14 11:14:54;;;;;;;41.83;25.58;;;;;;;4.38;62.41;95325.34;5133745;27;20507;-66
2022/02/14 11:17:20;;;;;;;43.28;24.77;;;;;;;4.31;62.22;95323.97;5117602;27;20035;-67
2022/02/14 11:19:48;;;;;;;47.63;26.30;;;;;;;4.30;63.07;95322.31;5116608;27;20015;-66
2022/02/14 11:22:14;;;;;;;46.83;24.33;;;;;;;4.30;62.93;95312.03;5133993;27;20111;-66
2022/02/14 11:24:40;;;;;;;45.00;25.23;;;;;;;4.44;62.91;95317.28;5110754;27;20044;-66